Time;durP1;ratioP1;P1;durP2;ratioP2;P2;SDS_P1;SDS_P2;PMS_P1;PMS_P2;Temp;Humidity;BMP_temperature;BMP_pressure;BME280_temperature;BME280_humidity;BME280_pressure;Samples;Min_cycle;Max_cycle;Signal;HPM_P1;HPM_P2
2023/09/12 00:02:05;;;;;;;19.50;14.60;;;;;;;14.51;78.71;99910.08;133763;1301;22979;-79
2023/09/12 00:05:06;;;;;;;26.60;17.50;;;;;;;14.46;78.71;99911.61;133794;1301;22597;-80
2023/09/12 00:08:07;;;;;;;25.20;16.60;;;;;;;14.44;79.05;99903.50;133806;1301;22460;-80
2023/09/12 00:11:13;;;;;;;20.50;13.60;;;;;;;14.45;79.11;99906.59;133794;1301;22423;-80
2023/09/12 00:14:17;;;;;;;21.90;15.30;;;;;;;14.44;79.08;99905.44;133727;1299;22815;-80
2023/09/12 00:17:18;;;;;;;22.10;15.80;;;;;;;14.41;78.90;99904.52;133820;1301;22448;-80
2023/09/12 00:20:18;;;;;;;23.10;17.60;;;;;;;14.38;78.82;99901.12;133798;1301;22394;-81
2023/09/12 00:23:20;;;;;;;;;;;;;;;14.35;78.69;99898.92;133823;1301;22524;-80
2023/09/12 00:26:20;;;;;;;19.10;14.40;;;;;;;14.32;78.61;99903.27;133794;1300;23173;-80
2023/09/12 00:29:22;;;;;;;19.90;14.90;;;;;;;14.31;78.56;99901.55;133842;1300;22467;-80
2023/09/12 00:32:22;;;;;;;24.10;15.70;;;;;;;14.33;78.33;99902.38;133771;1301;22263;-80
2023/09/12 00:35:23;;;;;;;18.00;14.50;;;;;;;14.32;78.39;99902.70;133816;1301;22273;-80
2023/09/12 00:38:23;;;;;;;22.60;16.50;;;;;;;14.30;78.54;99904.70;133792;1301;22265;-80
2023/09/12 00:41:24;;;;;;;21.30;16.00;;;;;;;14.26;78.61;99905.90;133834;1302;23160;-80
2023/09/12 00:44:24;;;;;;;;;;;;;;;14.25;78.87;99902.87;133842;1301;23170;-80
2023/09/12 00:47:26;;;;;;;21.40;15.90;;;;;;;14.23;78.88;99901.20;133779;1301;23319;-79
2023/09/12 00:50:28;;;;;;;22.40;17.30;;;;;;;14.24;79.23;99900.06;133820;1301;22172;-80
2023/09/12 00:53:28;;;;;;;19.30;16.60;;;;;;;14.23;79.49;99901.02;133800;1301;23488;-81
2023/09/12 00:56:29;;;;;;;23.60;15.80;;;;;;;14.17;79.20;99904.97;133751;1300;22484;-80
2023/09/12 00:59:30;;;;;;;;;;;;;;;14.12;78.98;99909.11;133781;1301;22448;-80
2023/09/12 01:02:30;;;;;;;22.70;14.20;;;;;;;14.08;78.87;99908.98;133812;1301;22472;-81
2023/09/12 01:05:31;;;;;;;;;;;;;;;14.04;78.79;99908.04;133761;1300;23218;-79
2023/09/12 01:08:31;;;;;;;21.60;15.00;;;;;;;14.05;78.77;99908.86;133752;1295;23330;-82
2023/09/12 01:11:32;;;;;;;18.70;15.50;;;;;;;14.02;78.79;99905.63;133810;1301;23229;-81
2023/09/12 01:14:33;;;;;;;20.10;15.30;;;;;;;14.00;78.93;99902.40;133794;1301;23109;-80
2023/09/12 01:17:34;;;;;;;20.30;15.30;;;;;;;13.94;79.25;99903.84;133760;1301;23108;-79
2023/09/12 01:20:36;;;;;;;21.80;14.50;;;;;;;13.92;79.25;99905.13;133779;1301;22788;-80
2023/09/12 01:23:52;;;;;;;19.70;14.60;;;;;;;13.87;78.98;99902.92;133780;1300;22285;-79
2023/09/12 01:27:21;;;;;;;21.70;14.60;;;;;;;13.81;78.82;99899.76;133726;1301;22194;-81
2023/09/12 01:30:25;;;;;;;22.70;15.30;;;;;;;13.74;78.84;99901.73;133690;1301;23072;-79
2023/09/12 01:33:26;;;;;;;21.40;14.60;;;;;;;13.71;79.14;99901.35;133840;1299;23207;-79
2023/09/12 01:36:26;;;;;;;20.90;13.80;;;;;;;13.71;78.89;99901.40;133848;1301;22388;-79
2023/09/12 01:39:27;;;;;;;;;;;;;;;13.68;78.79;99901.05;133824;1301;22421;-80
2023/09/12 01:42:35;;;;;;;19.50;15.70;;;;;;;13.68;79.61;99900.38;133795;1300;23927;-80
2023/09/12 01:45:36;;;;;;;17.50;14.40;;;;;;;13.63;79.87;99902.32;133851;1294;22170;-79
2023/09/12 01:48:38;;;;;;;22.40;15.00;;;;;;;13.59;79.65;99906.05;133767;1289;22404;-79
2023/09/12 01:51:39;;;;;;;19.90;14.90;;;;;;;13.55;79.38;99906.71;133726;1301;22315;-80
2023/09/12 01:54:42;;;;;;;21.90;15.00;;;;;;;13.53;79.41;99905.38;133666;1301;22221;-79
2023/09/12 01:57:42;;;;;;;24.30;18.30;;;;;;;13.53;79.51;99911.16;133786;1301;22456;-80
2023/09/12 02:00:43;;;;;;;23.10;17.00;;;;;;;13.53;79.86;99909.15;133652;1301;22351;-80
2023/09/12 02:03:43;;;;;;;19.60;15.20;;;;;;;13.53;79.71;99908.90;133780;1300;22462;-79
2023/09/12 02:06:44;;;;;;;21.40;15.90;;;;;;;13.53;79.96;99910.62;133790;1299;22236;-79
2023/09/12 02:09:44;;;;;;;22.60;16.90;;;;;;;13.50;79.94;99911.26;133775;1301;22546;-79
2023/09/12 02:12:45;;;;;;;22.70;16.00;;;;;;;13.50;79.84;99916.22;133740;1301;22487;-80
2023/09/12 02:15:45;;;;;;;21.70;15.00;;;;;;;13.51;80.05;99913.35;133583;1301;22483;-79
2023/09/12 02:18:46;;;;;;;;;;;;;;;13.46;79.67;99913.02;133626;1301;23244;-79
2023/09/12 02:21:46;;;;;;;16.10;13.80;;;;;;;13.41;79.66;99915.52;133769;1299;22229;-80
2023/09/12 02:24:47;;;;;;;15.80;14.10;;;;;;;13.34;80.16;99914.88;133777;1301;22276;-80
2023/09/12 02:27:47;;;;;;;19.90;15.10;;;;;;;13.27;80.17;99915.65;133782;1301;22528;-79
2023/09/12 02:30:48;;;;;;;;;;;;;;;13.22;79.82;99910.91;133754;1299;22469;-79
2023/09/12 02:33:49;;;;;;;18.40;14.50;;;;;;;13.22;80.20;99907.26;133674;1299;22461;-79
2023/09/12 02:36:50;;;;;;;22.90;15.90;;;;;;;13.22;80.83;99907.63;133783;1301;23227;-80
2023/09/12 02:39:50;;;;;;;15.90;13.80;;;;;;;13.17;80.74;99903.84;133753;1299;22870;-79
2023/09/12 02:42:52;;;;;;;22.40;16.40;;;;;;;13.06;81.12;99903.27;133696;1301;22444;-79
2023/09/12 02:45:52;;;;;;;21.40;15.70;;;;;;;13.05;80.95;99904.83;133670;1301;23006;-79
2023/09/12 02:48:53;;;;;;;;;;;;;;;13.01;80.99;99904.10;133800;1299;22473;-80
2023/09/12 02:51:53;;;;;;;19.30;14.00;;;;;;;12.98;81.51;99906.19;133619;1301;22389;-79
2023/09/12 02:54:54;;;;;;;18.80;15.70;;;;;;;12.94;81.62;99903.72;133819;1301;22475;-81
2023/09/12 02:57:55;;;;;;;21.10;15.10;;;;;;;12.91;81.95;99905.31;133809;1299;22477;-82
2023/09/12 03:00:55;;;;;;;20.20;15.90;;;;;;;12.92;82.00;99906.98;133776;1300;22400;-79
2023/09/12 03:03:57;;;;;;;;;;;;;;;12.94;81.85;99906.61;133804;1301;22457;-79
2023/09/12 03:06:57;;;;;;;19.00;14.00;;;;;;;12.93;81.59;99911.82;133769;1300;22508;-78
2023/09/12 03:09:58;;;;;;;;;;;;;;;12.91;81.23;99911.74;133683;1301;22465;-79
2023/09/12 03:12:59;;;;;;;21.80;15.30;;;;;;;12.87;81.16;99915.80;133790;1300;22446;-80
2023/09/12 03:16:00;;;;;;;19.20;16.20;;;;;;;12.84;81.40;99918.06;133793;1301;23402;-79
2023/09/12 03:19:02;;;;;;;18.60;15.60;;;;;;;12.80;81.41;99916.26;133690;1301;22429;-79
2023/09/12 03:22:03;;;;;;;24.00;17.10;;;;;;;12.74;81.55;99916.29;133736;1299;133756;-80
2023/09/12 03:25:05;;;;;;;21.50;14.40;;;;;;;12.68;81.66;99914.54;133656;1301;22448;-79
2023/09/12 03:28:07;;;;;;;22.40;16.50;;;;;;;12.64;81.71;99915.39;133682;1301;22244;-79
2023/09/12 03:31:13;;;;;;;20.20;14.50;;;;;;;12.62;81.77;99915.48;133809;1301;22566;-79
2023/09/12 03:34:13;;;;;;;17.50;14.70;;;;;;;12.60;81.88;99916.27;133671;1302;22485;-79
2023/09/12 03:37:17;;;;;;;16.30;13.40;;;;;;;12.59;81.71;99923.48;133669;1300;22348;-79
2023/09/12 03:40:18;;;;;;;21.30;14.40;;;;;;;12.60;81.69;99922.86;133702;1301;22271;-79
2023/09/12 03:43:18;;;;;;;18.40;14.30;;;;;;;12.58;81.69;99921.24;133800;1300;23003;-79
2023/09/12 03:46:19;;;;;;;22.60;17.00;;;;;;;12.59;81.87;99920.81;133809;1301;22492;-79
2023/09/12 03:49:19;;;;;;;19.80;15.10;;;;;;;12.62;82.36;99918.35;133789;1300;23122;-79
2023/09/12 03:52:20;;;;;;;;;;;;;;;12.61;82.03;99921.61;133799;1299;22475;-79
2023/09/12 03:55:20;;;;;;;22.40;17.40;;;;;;;12.57;82.04;99916.23;133806;1300;22444;-78
2023/09/12 03:58:21;;;;;;;22.00;16.10;;;;;;;12.54;82.46;99914.27;133830;1301;22468;-78
2023/09/12 04:01:22;;;;;;;21.50;16.10;;;;;;;12.49;82.60;99911.63;133820;1300;22535;-79
2023/09/12 04:04:22;;;;;;;20.50;14.50;;;;;;;12.48;82.68;99912.98;133692;1299;22388;-78
2023/09/12 04:07:23;;;;;;;19.10;14.40;;;;;;;12.47;82.26;99911.36;133806;1300;22886;-78
2023/09/12 04:10:23;;;;;;;;;;;;;;;12.45;82.13;99915.02;133700;1301;22490;-78
2023/09/12 04:13:24;;;;;;;27.30;15.60;;;;;;;12.45;82.59;99916.20;133776;1299;22195;-79
2023/09/12 04:16:25;;;;;;;17.20;14.00;;;;;;;12.50;82.75;99912.27;133810;1299;23340;-79
2023/09/12 04:19:25;;;;;;;20.60;15.70;;;;;;;12.49;82.17;99913.66;133649;1300;22454;-78
2023/09/12 04:22:26;;;;;;;21.00;14.80;;;;;;;12.45;82.31;99910.89;133824;1299;22655;-79
2023/09/12 04:25:26;;;;;;;22.50;15.10;;;;;;;12.44;82.11;99915.45;133633;1295;22439;-79
2023/09/12 04:28:27;;;;;;;17.70;13.90;;;;;;;12.44;82.10;99919.17;133822;1302;23106;-80
2023/09/12 04:31:27;;;;;;;17.90;14.40;;;;;;;12.44;82.12;99925.40;133779;1300;22294;-81
2023/09/12 04:34:28;;;;;;;18.70;14.50;;;;;;;12.42;82.02;99924.70;133639;1301;22551;-79
2023/09/12 04:37:29;;;;;;;22.10;14.20;;;;;;;12.39;81.97;99922.29;133742;1301;22403;-79
2023/09/12 04:40:31;;;;;;;17.60;14.80;;;;;;;12.38;82.33;99927.42;133555;1304;22457;-85
2023/09/12 04:43:32;;;;;;;21.70;14.30;;;;;;;12.40;82.58;99926.65;133620;1301;22957;-79
2023/09/12 04:46:36;;;;;;;17.90;15.10;;;;;;;12.42;82.35;99926.15;133616;1300;22249;-78
2023/09/12 04:49:36;;;;;;;18.80;15.10;;;;;;;12.43;82.39;99924.33;133663;1299;22337;-79
2023/09/12 04:52:38;;;;;;;19.20;14.60;;;;;;;12.45;82.36;99924.23;133835;1299;22427;-78
2023/09/12 04:55:38;;;;;;;17.60;13.90;;;;;;;12.46;82.38;99922.98;133847;1301;22547;-78
2023/09/12 04:58:39;;;;;;;;;;;;;;;12.52;82.42;99922.52;133874;1301;22433;-79
2023/09/12 05:01:40;;;;;;;21.50;15.20;;;;;;;12.57;82.56;99922.23;133800;1301;22194;-79
2023/09/12 05:04:43;;;;;;;;;;;;;;;12.61;82.68;99920.02;133838;1302;22450;-79
2023/09/12 05:07:44;;;;;;;54.40;14.00;;;;;;;12.65;82.88;99919.73;133846;1300;23346;-80
2023/09/12 05:10:45;;;;;;;;;;;;;;;12.76;82.94;99924.80;133798;1301;22448;-80
2023/09/12 05:13:45;;;;;;;19.30;14.10;;;;;;;12.87;82.93;99926.05;133796;1300;22273;-81
2023/09/12 05:16:46;;;;;;;17.30;13.50;;;;;;;13.13;83.29;99933.43;133722;1300;22413;-83
2023/09/12 05:19:46;;;;;;;18.80;14.50;;;;;;;13.54;83.49;99937.24;133797;1300;22240;-82
2023/09/12 05:22:47;;;;;;;23.30;14.00;;;;;;;13.96;83.33;99936.79;133788;1300;23509;-78
2023/09/12 05:25:47;;;;;;;;;;;;;;;14.42;83.04;99936.71;133685;1299;23289;-77
2023/09/12 05:28:49;;;;;;;20.60;12.60;;;;;;;14.87;82.81;99937.30;133638;1300;22457;-78
2023/09/12 05:31:50;;;;;;;17.10;14.50;;;;;;;15.31;82.39;99936.63;133740;1300;22638;-78
2023/09/12 05:34:50;;;;;;;;;;;;;;;15.71;81.90;99931.98;133725;1300;22519;-78
2023/09/12 05:37:52;;;;;;;26.40;14.20;;;;;;;16.15;81.69;99933.42;133726;1301;22528;-78
2023/09/12 05:40:52;;;;;;;17.40;14.20;;;;;;;16.57;81.18;99931.66;133626;1300;22368;-78
2023/09/12 05:43:53;;;;;;;23.00;14.50;;;;;;;17.04;80.97;99930.70;133576;1301;22212;-79
2023/09/12 05:46:54;;;;;;;;;;;;;;;17.56;80.49;99933.40;133810;1301;22824;-78
2023/09/12 05:49:55;;;;;;;20.20;15.00;;;;;;;18.07;79.94;99936.05;133765;1301;22402;-78
2023/09/12 05:52:56;;;;;;;20.60;14.70;;;;;;;18.57;79.42;99931.47;133650;1301;22313;-78
2023/09/12 05:55:56;;;;;;;;;;;;;;;19.08;78.49;99932.57;133803;1300;22537;-78
2023/09/12 05:58:57;;;;;;;17.90;14.20;;;;;;;19.49;77.87;99932.27;133681;1291;22464;-78
2023/09/12 06:01:57;;;;;;;;;;;;;;;19.93;77.06;99932.89;133619;1301;22462;-78
2023/09/12 06:04:58;;;;;;;;;;;;;;;20.26;76.28;99928.27;133691;1300;22830;-81
2023/09/12 06:07:59;;;;;;;15.10;13.50;;;;;;;20.64;75.84;99926.07;133504;1301;22468;-84
2023/09/12 06:11:00;;;;;;;19.00;14.90;;;;;;;21.11;75.46;99933.04;133495;1301;23079;-83
2023/09/12 06:14:00;;;;;;;19.80;14.80;;;;;;;21.66;74.42;99933.74;133459;1301;23145;-79
2023/09/12 06:17:01;;;;;;;17.60;14.20;;;;;;;21.96;73.61;99932.66;133501;1302;23220;-84
2023/09/12 06:20:03;;;;;;;17.20;14.90;;;;;;;22.38;72.94;99935.21;133532;1303;23344;-81
2023/09/12 06:23:05;;;;;;;20.60;14.20;;;;;;;22.75;71.78;99931.16;133471;1301;22264;-80
2023/09/12 06:26:05;;;;;;;17.00;14.90;;;;;;;22.98;70.85;99926.86;133493;1301;22261;-80
2023/09/12 06:29:09;;;;;;;22.50;15.00;;;;;;;23.07;69.88;99927.40;133491;1301;22385;-87
2023/09/12 06:32:10;;;;;;;21.10;15.30;;;;;;;23.09;69.22;99928.02;133480;1302;22250;-77
2023/09/12 06:35:10;;;;;;;15.90;13.80;;;;;;;23.34;68.92;99925.73;133479;1301;22361;-79
2023/09/12 06:38:11;;;;;;;15.60;13.90;;;;;;;23.62;68.15;99923.50;133518;1301;22522;-81
2023/09/12 06:41:12;;;;;;;19.80;14.20;;;;;;;23.87;67.62;99925.04;133499;1302;22427;-80
2023/09/12 06:44:12;;;;;;;16.80;13.30;;;;;;;24.14;66.86;99920.09;133498;1301;22427;-80
2023/09/12 06:47:13;;;;;;;15.10;12.90;;;;;;;24.24;65.55;99918.46;133467;1302;22398;-80
2023/09/12 06:50:13;;;;;;;15.90;13.40;;;;;;;24.23;65.27;99920.73;133207;1301;23811;-83
2023/09/12 06:53:14;;;;;;;15.50;13.40;;;;;;;24.40;64.92;99920.18;133351;1301;23317;-82
2023/09/12 06:56:14;;;;;;;15.30;13.10;;;;;;;24.64;64.53;99921.27;133446;1301;23150;-82
2023/09/12 06:59:15;;;;;;;16.40;13.00;;;;;;;24.87;63.72;99922.77;133525;1303;23509;-83
2023/09/12 07:02:18;;;;;;;14.40;12.90;;;;;;;25.04;63.40;99922.11;133512;1301;22372;-81
2023/09/12 07:05:18;;;;;;;15.20;12.40;;;;;;;25.27;62.57;99929.73;133536;1301;22514;-81
2023/09/12 07:08:19;;;;;;;14.90;12.70;;;;;;;25.51;62.57;99928.69;133685;1300;22382;-81
2023/09/12 07:11:19;;;;;;;18.30;13.00;;;;;;;25.79;62.24;99929.04;133816;1300;22452;-83
2023/09/12 07:14:21;;;;;;;14.40;12.80;;;;;;;26.11;61.24;99929.91;133808;1299;22453;-82
2023/09/12 07:17:22;;;;;;;21.40;12.70;;;;;;;26.41;60.51;99931.54;133841;1299;22380;-82
2023/09/12 07:20:23;;;;;;;15.70;12.30;;;;;;;26.65;59.73;99930.45;133841;1301;22255;-83
2023/09/12 07:23:24;;;;;;;16.90;12.60;;;;;;;26.85;59.12;99929.33;133793;1300;22369;-83
2023/09/12 07:26:24;;;;;;;15.40;11.80;;;;;;;26.98;57.95;99927.05;133835;1301;22366;-83
2023/09/12 07:29:25;;;;;;;12.50;11.10;;;;;;;26.99;57.55;99927.80;133803;1300;23167;-81
2023/09/12 07:32:27;;;;;;;17.90;11.70;;;;;;;26.94;57.50;99930.39;133813;1300;22455;-82
2023/09/12 07:35:28;;;;;;;16.50;11.20;;;;;;;27.26;57.45;99923.48;133768;1301;22513;-82
2023/09/12 07:38:30;;;;;;;14.50;10.80;;;;;;;27.52;56.70;99923.36;133780;1301;22394;-82
2023/09/12 07:41:31;;;;;;;12.70;11.30;;;;;;;27.51;55.78;99925.54;133809;1301;23145;-82
2023/09/12 07:44:32;;;;;;;15.30;11.30;;;;;;;27.53;55.94;99924.16;133787;1301;22519;-82
2023/09/12 07:47:33;;;;;;;14.00;12.10;;;;;;;27.78;55.26;99918.77;133837;1301;22218;-81
2023/09/12 07:50:34;;;;;;;12.30;10.70;;;;;;;27.95;54.72;99922.10;133770;1292;22515;-81
2023/09/12 07:53:35;;;;;;;13.90;10.90;;;;;;;28.14;54.83;99920.27;133795;1300;22470;-81
2023/09/12 07:56:35;;;;;;;15.10;10.80;;;;;;;28.35;53.96;99912.04;133821;1299;22357;-82
2023/09/12 07:59:36;;;;;;;13.50;10.70;;;;;;;28.56;53.45;99911.40;133815;1301;22364;-84
2023/09/12 08:02:37;;;;;;;13.10;10.50;;;;;;;28.90;53.01;99909.66;133802;1300;22434;-83
2023/09/12 08:05:38;;;;;;;14.00;10.40;;;;;;;29.08;52.39;99913.65;133822;1298;22499;-84
2023/09/12 08:08:38;;;;;;;11.70;10.50;;;;;;;29.12;51.34;99910.70;133801;1292;22486;-86
2023/09/12 08:11:39;;;;;;;14.20;10.90;;;;;;;29.16;51.44;99909.44;133799;1299;22584;-88
2023/09/12 08:14:40;;;;;;;12.00;10.50;;;;;;;29.31;51.24;99911.41;133841;1299;22383;-85
2023/09/12 08:17:40;;;;;;;11.90;8.70;;;;;;;29.49;50.66;99912.42;133841;1300;22438;-81
2023/09/12 08:20:43;;;;;;;12.60;10.00;;;;;;;29.46;49.98;99917.23;133788;1300;22408;-81
2023/09/12 08:23:43;;;;;;;11.80;10.50;;;;;;;29.38;50.02;99913.16;133818;1301;22450;-81
2023/09/12 08:26:44;;;;;;;11.50;10.30;;;;;;;29.47;50.02;99909.29;133803;1300;22400;-81
2023/09/12 08:29:47;;;;;;;12.20;10.20;;;;;;;29.61;49.40;99911.36;133768;1301;22423;-81
2023/09/12 08:32:48;;;;;;;10.60;9.50;;;;;;;29.70;49.21;99913.15;133808;1300;22430;-82
2023/09/12 08:35:50;;;;;;;11.50;10.30;;;;;;;29.93;49.18;99907.64;133792;1300;22425;-80
2023/09/12 08:38:50;;;;;;;12.30;9.20;;;;;;;30.17;48.87;99913.11;133724;1300;22233;-81
2023/09/12 08:41:52;;;;;;;16.50;10.00;;;;;;;30.14;48.27;99914.52;133815;1299;22480;-82
2023/09/12 08:44:53;;;;;;;10.20;9.10;;;;;;;30.21;48.40;99912.86;133776;1301;22359;-83
2023/09/12 08:47:56;;;;;;;9.70;8.70;;;;;;;30.19;47.37;99912.52;133848;1295;22261;-84
2023/09/12 08:51:00;;;;;;;10.50;9.40;;;;;;;30.13;47.44;99908.42;133816;1301;22377;-85
2023/09/12 08:54:05;;;;;;;10.40;9.30;;;;;;;30.30;47.43;99908.49;133795;1300;22416;-85
2023/09/12 08:57:10;;;;;;;11.80;9.70;;;;;;;30.21;47.07;99910.51;133804;1301;22449;-86
2023/09/12 09:00:14;;;;;;;10.60;9.40;;;;;;;30.13;47.43;99905.95;133819;1300;22372;-85
2023/09/12 09:03:16;;;;;;;14.50;9.60;;;;;;;30.45;47.52;99908.27;133813;1301;22454;-85
2023/09/12 09:06:19;;;;;;;10.60;9.60;;;;;;;30.69;46.80;99909.09;133676;1301;22433;-86
2023/09/12 09:09:21;;;;;;;12.00;10.00;;;;;;;30.81;46.74;99908.73;133456;1301;22425;-86
2023/09/12 09:12:22;;;;;;;10.50;9.40;;;;;;;31.16;46.64;99911.11;133538;1301;22377;-85
2023/09/12 09:15:28;;;;;;;15.40;9.90;;;;;;;31.42;46.37;99914.30;133522;1301;22252;-85
2023/09/12 09:18:28;;;;;;;11.60;9.00;;;;;;;31.42;45.57;99918.41;133558;1301;23262;-84
2023/09/12 09:21:31;;;;;;;12.20;9.10;;;;;;;31.45;45.73;99917.69;133529;1302;22460;-83
2023/09/12 09:24:32;;;;;;;10.60;8.50;;;;;;;31.52;46.04;99915.94;133448;1301;23119;-83
2023/09/12 09:27:34;;;;;;;10.90;8.70;;;;;;;31.70;45.80;99916.33;133414;1302;22404;-83
2023/09/12 09:30:54;;;;;;;10.90;8.50;;;;;;;31.99;45.33;99914.23;133515;1304;22562;-79
2023/09/12 09:33:55;;;;;;;11.30;9.10;;;;;;;32.26;44.33;99912.36;133534;1306;23569;-82
2023/09/12 09:37:02;;;;;;;12.20;8.40;;;;;;;32.25;43.45;99908.61;133549;1302;22880;-83
2023/09/12 09:40:07;;;;;;;10.70;8.60;;;;;;;32.24;43.42;99903.79;133549;1298;22297;-82
2023/09/12 09:43:08;;;;;;;10.40;8.90;;;;;;;32.41;43.21;99903.87;133522;1304;22201;-83
2023/09/12 09:46:15;;;;;;;9.20;8.20;;;;;;;32.67;42.64;99905.81;133525;1300;22296;-78
2023/09/12 09:49:19;;;;;;;9.20;7.50;;;;;;;32.75;42.62;99904.95;133490;1304;22287;-84
2023/09/12 09:52:29;;;;;;;10.30;8.50;;;;;;;32.87;42.44;99901.19;133497;1301;22465;-84
2023/09/12 09:55:30;;;;;;;10.00;8.80;;;;;;;32.98;41.84;99904.16;133513;1301;22261;-82
2023/09/12 09:58:30;;;;;;;9.20;8.20;;;;;;;33.16;41.94;99901.77;133522;1294;22363;-83
2023/09/12 10:01:37;;;;;;;9.30;8.30;;;;;;;33.23;41.45;99898.40;133516;1304;22450;-83
2023/09/12 10:04:38;;;;;;;17.30;8.50;;;;;;;33.07;40.88;99896.48;133536;1301;22375;-83
2023/09/12 10:07:42;;;;;;;13.40;8.50;;;;;;;32.95;40.72;99894.05;133584;1302;23195;-83
2023/09/12 10:10:43;;;;;;;14.90;8.10;;;;;;;32.96;41.08;99892.05;133785;1300;22381;-82
2023/09/12 10:13:55;;;;;;;10.70;7.90;;;;;;;32.98;40.73;99891.13;133784;1300;22435;-83
2023/09/12 10:17:01;;;;;;;8.60;7.40;;;;;;;33.00;40.35;99889.59;133701;1301;22353;-84
2023/09/12 10:20:12;;;;;;;7.90;7.10;;;;;;;33.00;39.72;99888.04;133664;1301;23177;-85
2023/09/12 10:23:17;;;;;;;8.70;7.00;;;;;;;32.76;38.89;99887.34;133765;1300;23078;-85
2023/09/12 10:26:19;;;;;;;8.60;7.10;;;;;;;32.80;38.54;99887.83;133763;1300;22229;-85
2023/09/12 10:29:22;;;;;;;8.90;7.20;;;;;;;32.92;38.35;99882.77;133774;1301;23039;-85
2023/09/12 10:32:24;;;;;;;8.20;6.50;;;;;;;33.03;37.89;99885.45;133774;1301;23045;-86
2023/09/12 10:35:25;;;;;;;9.50;6.70;;;;;;;33.04;36.52;99886.39;133753;1301;23254;-74
2023/09/12 10:38:29;;;;;;;8.90;6.30;;;;;;;32.90;35.69;99890.58;133746;1301;22416;-76
2023/09/12 10:41:30;;;;;;;9.00;6.40;;;;;;;32.66;35.51;99888.52;133756;1300;23257;-76
2023/09/12 10:44:32;;;;;;;8.70;7.00;;;;;;;32.47;36.22;99885.80;133751;1301;22484;-75
2023/09/12 10:47:32;;;;;;;9.60;5.70;;;;;;;32.67;35.26;99887.84;133790;1300;22528;-75
2023/09/12 10:50:34;;;;;;;8.10;6.30;;;;;;;32.83;35.02;99888.76;133813;1307;22127;-77
2023/09/12 10:53:35;;;;;;;11.10;6.80;;;;;;;32.98;34.53;99891.69;133805;1300;22359;-79
2023/09/12 10:56:36;;;;;;;9.10;7.10;;;;;;;32.95;34.56;99887.45;133758;1300;22460;-79
2023/09/12 10:59:59;;;;;;;7.40;6.60;;;;;;;32.94;35.40;99883.00;133763;1301;22416;-79
2023/09/12 11:03:29;;;;;;;9.80;6.80;;;;;;;33.09;36.34;99880.58;133760;1302;22405;-79
2023/09/12 11:06:30;;;;;;;7.80;7.10;;;;;;;33.23;36.26;99880.10;133791;1301;23168;-79
2023/09/12 11:09:33;;;;;;;8.80;6.80;;;;;;;33.22;36.44;99874.02;133736;1301;23196;-78
2023/09/12 11:12:35;;;;;;;9.80;6.90;;;;;;;33.30;35.83;99871.62;133779;1301;22298;-78
2023/09/12 11:15:56;;;;;;;8.90;6.90;;;;;;;33.16;35.44;99869.26;133672;1301;22433;-79
2023/09/12 11:19:22;;;;;;;8.80;7.30;;;;;;;33.08;35.51;99875.11;133753;1301;23111;-80
2023/09/12 11:22:29;;;;;;;9.90;7.30;;;;;;;32.86;35.39;99874.46;133763;1301;22761;-79
2023/09/12 11:25:31;;;;;;;12.10;7.70;;;;;;;32.73;35.46;99868.86;133755;1301;22355;-76
2023/09/12 11:28:32;;;;;;;7.90;7.10;;;;;;;33.02;35.48;99868.92;133758;1301;22460;-77
2023/09/12 11:31:33;;;;;;;9.70;8.00;;;;;;;33.24;35.46;99872.78;133775;1301;22402;-82
2023/09/12 11:34:44;;;;;;;8.10;7.30;;;;;;;33.47;35.29;99870.02;133759;1301;23088;-82
2023/09/12 11:37:50;;;;;;;8.40;7.00;;;;;;;33.69;35.48;99865.66;133749;1301;22219;-85
2023/09/12 11:40:51;;;;;;;10.30;7.30;;;;;;;33.68;35.21;99865.83;133794;1301;22422;-83
2023/09/12 11:43:52;;;;;;;8.60;7.10;;;;;;;33.71;35.01;99863.77;133758;1301;22339;-83
2023/09/12 11:46:53;;;;;;;8.10;7.30;;;;;;;33.80;34.68;99865.02;133782;1301;22411;-83
2023/09/12 11:49:56;;;;;;;9.60;7.70;;;;;;;33.52;34.56;99863.70;133779;1300;22343;-82
2023/09/12 11:53:03;;;;;;;10.40;6.80;;;;;;;33.30;34.84;99866.20;133779;1305;22411;-82
2023/09/12 11:56:07;;;;;;;9.90;7.10;;;;;;;33.17;34.84;99866.55;133768;1289;22268;-82
2023/09/12 11:59:11;;;;;;;9.10;7.40;;;;;;;33.22;34.76;99860.66;133740;1301;22708;-82
2023/09/12 12:02:12;;;;;;;13.30;8.00;;;;;;;33.27;34.83;99858.67;133785;1301;22424;-82
2023/09/12 12:05:16;;;;;;;8.70;7.80;;;;;;;33.42;35.10;99858.79;133756;1301;22225;-82
2023/09/12 12:08:20;;;;;;;9.50;7.60;;;;;;;33.48;35.35;99856.94;133780;1301;22368;-81
2023/09/12 12:11:21;;;;;;;8.40;7.60;;;;;;;33.52;35.22;99853.86;133812;1301;22218;-82
2023/09/12 12:14:22;;;;;;;8.80;7.00;;;;;;;33.60;35.18;99851.89;133759;1301;22267;-82
2023/09/12 12:17:22;;;;;;;11.10;7.30;;;;;;;33.64;35.04;99850.10;133808;1301;22495;-82
2023/09/12 12:20:28;;;;;;;12.60;7.20;;;;;;;33.62;34.85;99849.13;133757;1301;22378;-82
2023/09/12 12:23:32;;;;;;;12.40;7.30;;;;;;;33.63;34.60;99849.10;133639;1301;23229;-84
2023/09/12 12:26:38;;;;;;;8.40;6.60;;;;;;;33.57;34.28;99848.94;133745;1301;22202;-83
2023/09/12 12:29:39;;;;;;;11.10;7.20;;;;;;;33.52;34.23;99851.16;133632;1301;22295;-83
2023/09/12 12:32:46;;;;;;;8.90;7.00;;;;;;;33.50;34.30;99853.02;133770;1301;22440;-82
2023/09/12 12:35:47;;;;;;;9.20;7.40;;;;;;;33.48;34.11;99851.38;133764;1301;23157;-82
2023/09/12 12:38:51;;;;;;;12.30;7.30;;;;;;;33.37;34.27;99852.84;133734;1300;22379;-82
2023/09/12 12:41:53;;;;;;;8.80;7.10;;;;;;;33.38;34.42;99851.00;133746;1300;22353;-83
2023/09/12 12:44:54;;;;;;;10.20;7.00;;;;;;;33.27;34.68;99851.75;133723;1300;22407;-82
2023/09/12 12:48:01;;;;;;;8.40;7.10;;;;;;;33.02;34.72;99852.60;133708;1301;22456;-82
2023/09/12 12:51:22;;;;;;;7.90;7.10;;;;;;;32.82;35.06;99853.95;133738;1301;22421;-80
2023/09/12 12:54:23;;;;;;;9.90;7.30;;;;;;;32.74;35.36;99854.92;133664;1301;22365;-83
2023/09/12 12:57:23;;;;;;;8.50;7.00;;;;;;;32.72;35.17;99849.65;133758;1302;22645;-85
2023/09/12 13:00:24;;;;;;;11.10;7.10;;;;;;;32.76;34.94;99847.88;133708;1300;22496;-81
2023/09/12 13:03:25;;;;;;;7.60;6.90;;;;;;;32.66;34.74;99845.60;133717;1302;22330;-81
2023/09/12 13:06:35;;;;;;;9.30;7.00;;;;;;;32.53;34.75;99845.67;133752;1301;22337;-82
2023/09/12 13:09:37;;;;;;;10.60;7.50;;;;;;;32.37;34.84;99841.51;133738;1302;22195;-81
2023/09/12 13:12:38;;;;;;;8.50;6.70;;;;;;;32.26;35.06;99840.34;133750;1298;23107;-81
2023/09/12 13:15:41;;;;;;;7.70;6.90;;;;;;;32.27;35.43;99839.25;133631;1302;22217;-81
2023/09/12 13:18:42;;;;;;;10.70;6.90;;;;;;;32.31;35.50;99839.42;133779;1301;22526;-82
2023/09/12 13:21:42;;;;;;;7.50;6.80;;;;;;;32.33;35.70;99839.15;133728;1300;22558;-81
2023/09/12 13:24:43;;;;;;;12.70;6.90;;;;;;;32.28;35.87;99837.74;133771;1300;22423;-82
2023/09/12 13:27:44;;;;;;;10.70;7.00;;;;;;;32.29;35.75;99837.52;133733;1300;22508;-81
2023/09/12 13:30:44;;;;;;;6.80;6.10;;;;;;;32.23;35.72;99836.70;133727;1300;22215;-82
2023/09/12 13:33:45;;;;;;;10.20;6.70;;;;;;;32.14;35.47;99837.05;133750;1298;22237;-83
2023/09/12 13:36:45;;;;;;;9.50;7.00;;;;;;;32.10;35.30;99836.06;133759;1300;23054;-82
2023/09/12 13:39:49;;;;;;;7.00;6.30;;;;;;;32.01;35.86;99834.94;133755;1301;22417;-81
2023/09/12 13:42:50;;;;;;;12.20;6.50;;;;;;;31.93;36.48;99832.73;133741;1301;22437;-82
2023/09/12 13:45:51;;;;;;;13.20;6.60;;;;;;;31.85;35.49;99830.52;133765;1302;22874;-82
2023/09/12 13:48:51;;;;;;;22.30;7.70;;;;;;;31.74;35.84;99828.55;133732;1301;22212;-83
2023/09/12 13:51:52;;;;;;;9.70;6.90;;;;;;;31.64;35.54;99826.41;133752;1301;23250;-82
2023/09/12 13:54:54;;;;;;;44.90;8.10;;;;;;;31.55;35.61;99820.45;133760;1302;22316;-83
2023/09/12 13:57:59;;;;;;;7.50;6.40;;;;;;;31.53;35.42;99819.46;133764;1301;22543;-83
2023/09/12 14:00:59;;;;;;;9.50;7.00;;;;;;;31.45;35.25;99818.74;133740;1300;22562;-84